Time;durP1;ratioP1;P1;durP2;ratioP2;P2;SDS_P1;SDS_P2;PMS_P1;PMS_P2;Temp;Humidity;BMP_temperature;BMP_pressure;BME280_temperature;BME280_humidity;BME280_pressure;Samples;Min_cycle;Max_cycle;Signal;HPM_P1;HPM_P2
2023/05/31 00:02:16;;;;;;;0.73;0.73;;;15.20;59.20;;;;;;5053555;28;20175;-73
2023/05/31 00:04:42;;;;;;;1.13;1.13;;;15.20;58.70;;;;;;5053309;28;20276;-73
2023/05/31 00:07:08;;;;;;;1.00;0.73;;;15.10;59.90;;;;;;5053244;28;20436;-73
2023/05/31 00:09:33;;;;;;;0.70;0.67;;;15.10;59.50;;;;;;5053432;28;20512;-73
2023/05/31 00:11:59;;;;;;;5.90;0.67;;;15.10;59.20;;;;;;5053144;28;20539;-73
2023/05/31 00:14:25;;;;;;;6.63;1.10;;;15.10;59.00;;;;;;5052542;28;20228;-73
2023/05/31 00:16:51;;;;;;;0.60;0.60;;;15.10;59.30;;;;;;5052979;28;20170;-72
2023/05/31 00:19:17;;;;;;;1.13;0.90;;;14.90;59.10;;;;;;5053269;28;20256;-73
2023/05/31 00:21:46;;;;;;;2.03;1.50;;;15.00;59.20;;;;;;5053385;28;20928;-73
2023/05/31 00:24:12;;;;;;;0.53;0.53;;;15.10;58.60;;;;;;5053097;28;20242;-73
2023/05/31 00:26:38;;;;;;;0.97;0.63;;;15.10;58.70;;;;;;5052978;28;20495;-73
2023/05/31 00:29:04;;;;;;;1.23;1.23;;;15.10;58.40;;;;;;5053032;28;20410;-72
2023/05/31 00:31:30;;;;;;;1.57;1.50;;;15.10;58.10;;;;;;5053252;28;20782;-73
2023/05/31 00:33:57;;;;;;;1.07;0.80;;;15.10;59.10;;;;;;5053002;28;20198;-73
2023/05/31 00:36:23;;;;;;;1.03;1.00;;;15.10;58.70;;;;;;5052834;28;20423;-73
2023/05/31 00:38:48;;;;;;;3.00;2.70;;;15.10;58.40;;;;;;5053222;28;20494;-73
2023/05/31 00:41:14;;;;;;;1.00;0.80;;;15.00;58.80;;;;;;5053190;28;20440;-73
2023/05/31 00:43:40;;;;;;;0.90;0.90;;;15.00;59.30;;;;;;5053130;28;20783;-73
2023/05/31 00:46:08;;;;;;;2.30;0.60;;;15.10;60.50;;;;;;5052919;28;20534;-72
2023/05/31 00:48:34;;;;;;;0.60;0.60;;;15.10;59.50;;;;;;5052776;28;20705;-73
2023/05/31 00:51:01;;;;;;;1.17;1.17;;;15.00;60.00;;;;;;5053082;28;20414;-73
2023/05/31 00:53:27;;;;;;;1.47;1.07;;;15.00;60.80;;;;;;5052775;28;20950;-73
2023/05/31 00:55:53;;;;;;;1.00;0.97;;;14.90;59.50;;;;;;5052978;28;20496;-73
2023/05/31 00:58:19;;;;;;;1.63;0.90;;;15.00;60.10;;;;;;5052929;28;20399;-73
2023/05/31 01:00:45;;;;;;;1.53;1.47;;;15.00;60.40;;;;;;5052814;28;20409;-73
2023/05/31 01:03:12;;;;;;;1.07;0.97;;;15.00;60.10;;;;;;5052727;28;20937;-73
2023/05/31 01:05:39;;;;;;;0.70;0.70;;;15.00;60.10;;;;;;5052652;28;20483;-73
2023/05/31 01:08:05;;;;;;;1.63;1.53;;;15.00;60.80;;;;;;5052869;28;20415;-73
2023/05/31 01:10:31;;;;;;;1.60;1.50;;;14.90;61.00;;;;;;5052869;28;20486;-73
2023/05/31 01:13:10;;;;;;;3.10;1.40;;;14.80;61.70;;;;;;5052534;28;20231;-73
2023/05/31 01:15:45;;;;;;;0.93;0.93;;;14.90;61.80;;;;;;5052702;28;20411;-72
2023/05/31 01:18:18;;;;;;;3.53;0.70;;;14.80;61.70;;;;;;5052784;28;20862;-73
2023/05/31 01:20:49;;;;;;;0.70;0.67;;;14.80;61.10;;;;;;5052842;28;20410;-73
2023/05/31 01:23:23;;;;;;;0.70;0.70;;;14.80;61.20;;;;;;5052705;28;20580;-72
2023/05/31 01:26:22;;;;;;;1.40;1.30;;;14.80;62.00;;;;;;5052445;28;20475;-73
2023/05/31 01:28:55;;;;;;;1.60;1.10;;;14.90;62.00;;;;;;5056325;28;20432;-72
2023/05/31 01:31:21;;;;;;;3.60;1.43;;;14.90;60.80;;;;;;5056295;28;20523;-73
2023/05/31 01:33:51;;;;;;;0.80;0.80;;;14.90;61.80;;;;;;5056042;28;20428;-73
2023/05/31 01:36:17;;;;;;;0.87;0.83;;;14.90;61.80;;;;;;5055714;28;20415;-73
2023/05/31 01:38:42;;;;;;;1.00;1.00;;;14.90;62.20;;;;;;5055927;28;20401;-73
2023/05/31 01:41:12;;;;;;;1.57;1.47;;;14.80;62.90;;;;;;5055936;28;20169;-73
2023/05/31 01:43:42;;;;;;;1.77;1.57;;;14.80;62.10;;;;;;5055830;28;20234;-73
2023/05/31 01:46:10;;;;;;;2.87;2.40;;;14.80;61.90;;;;;;5055651;28;20435;-73
2023/05/31 01:48:37;;;;;;;0.80;0.70;;;14.90;62.50;;;;;;5055691;28;20404;-73
2023/05/31 01:51:05;;;;;;;1.90;1.80;;;14.80;61.60;;;;;;5055623;28;20385;-73
2023/05/31 01:53:31;;;;;;;1.87;1.77;;;14.80;61.80;;;;;;5055652;28;20425;-73
2023/05/31 01:55:58;;;;;;;1.43;1.40;;;14.80;62.10;;;;;;5055485;28;20919;-72
2023/05/31 01:58:27;;;;;;;0.53;0.53;;;14.70;62.20;;;;;;5055638;28;20782;-72
2023/05/31 02:00:53;;;;;;;2.60;1.03;;;14.50;63.00;;;;;;5055608;28;20404;-73
2023/05/31 02:03:18;;;;;;;0.90;0.90;;;14.60;63.00;;;;;;5055627;28;20429;-73
2023/05/31 02:06:00;;;;;;;1.27;1.17;;;14.50;63.80;;;;;;5055391;28;20200;-73
2023/05/31 02:08:26;;;;;;;1.57;1.57;;;14.50;63.30;;;;;;5055560;28;20258;-73
2023/05/31 02:10:53;;;;;;;1.40;1.30;;;14.60;63.40;;;;;;5055429;28;20413;-72
2023/05/31 02:13:19;;;;;;;1.00;1.00;;;14.60;62.90;;;;;;5055226;28;20464;-73
2023/05/31 02:15:45;;;;;;;0.60;0.60;;;14.60;63.10;;;;;;5055367;28;20401;-72
2023/05/31 02:18:12;;;;;;;0.87;0.87;;;14.60;63.70;;;;;;5055480;28;20411;-72
2023/05/31 02:20:38;;;;;;;4.10;2.40;;;14.60;63.80;;;;;;5055265;28;20400;-72
2023/05/31 02:23:04;;;;;;;1.47;1.20;;;14.50;63.10;;;;;;5055312;28;20424;-72
2023/05/31 02:25:30;;;;;;;0.87;0.80;;;14.50;63.40;;;;;;5055075;28;20871;-72
2023/05/31 02:27:57;;;;;;;1.13;1.03;;;14.50;64.10;;;;;;5055202;28;20966;-73
2023/05/31 02:30:26;;;;;;;0.70;0.70;;;14.50;64.30;;;;;;5055056;28;20174;-73
2023/05/31 02:32:53;;;;;;;2.03;1.93;;;14.50;63.80;;;;;;5054979;28;20522;-73
2023/05/31 02:35:19;;;;;;;1.17;0.93;;;14.50;64.40;;;;;;5054918;28;20778;-73
2023/05/31 02:37:46;;;;;;;1.03;1.03;;;14.50;65.10;;;;;;5054612;28;20404;-73
2023/05/31 02:40:13;;;;;;;0.87;0.87;;;14.40;65.80;;;;;;5055058;28;20498;-72
2023/05/31 02:42:40;;;;;;;1.00;1.00;;;14.10;81.10;;;;;;5054844;28;20417;-73
2023/05/31 02:45:07;;;;;;;0.80;0.80;;;14.40;66.70;;;;;;5054645;28;20417;-73
2023/05/31 02:47:36;;;;;;;1.17;0.80;;;14.40;66.30;;;;;;5054597;28;20410;-72
2023/05/31 02:50:02;;;;;;;2.40;1.43;;;14.30;66.30;;;;;;5047704;28;20450;-73
2023/05/31 02:52:28;;;;;;;1.90;1.80;;;14.30;82.50;;;;;;5044782;28;20459;-73
2023/05/31 02:54:54;;;;;;;1.20;1.20;;;14.30;67.60;;;;;;5044631;28;20408;-73
2023/05/31 02:57:19;;;;;;;0.60;0.60;;;14.20;65.50;;;;;;5044472;28;20194;-73
2023/05/31 02:59:46;;;;;;;3.03;1.07;;;14.30;66.10;;;;;;5044320;28;20419;-73
2023/05/31 03:02:12;;;;;;;0.93;0.87;;;14.30;66.00;;;;;;5044188;28;20185;-73
2023/05/31 03:04:38;;;;;;;0.73;0.60;;;14.40;65.80;;;;;;5043475;28;20858;-73
2023/05/31 03:07:04;;;;;;;1.10;1.10;;;14.40;65.10;;;;;;5043226;28;20423;-72
2023/05/31 03:09:30;;;;;;;0.80;0.80;;;14.40;64.80;;;;;;5043369;28;20885;-73
2023/05/31 03:11:55;;;;;;;1.90;1.13;;;14.40;65.50;;;;;;5043374;28;20267;-73
2023/05/31 03:14:21;;;;;;;0.70;0.70;;;14.40;64.80;;;;;;5043225;28;20217;-73
2023/05/31 03:16:47;;;;;;;1.30;1.20;;;14.30;65.60;;;;;;5043287;28;20166;-73
2023/05/31 03:19:13;;;;;;;1.70;1.60;;;;;;;;;;5049346;28;20253;-72
2023/05/31 03:21:39;;;;;;;3.83;1.40;;;14.20;65.70;;;;;;5054037;28;20174;-72
2023/05/31 03:24:05;;;;;;;1.70;1.60;;;14.20;66.00;;;;;;5053667;28;20433;-72
2023/05/31 03:26:31;;;;;;;1.30;1.27;;;14.20;66.80;;;;;;5052353;28;20748;-73
2023/05/31 03:28:56;;;;;;;1.23;1.23;;;14.10;66.10;;;;;;5054053;28;20174;-73
2023/05/31 03:31:22;;;;;;;0.90;0.90;;;14.20;65.60;;;;;;5054014;28;20501;-73
2023/05/31 03:33:50;;;;;;;3.60;2.00;;;14.20;65.40;;;;;;5053662;28;20233;-72
2023/05/31 03:36:16;;;;;;;2.43;1.67;;;14.30;66.30;;;;;;5053802;28;20173;-73
2023/05/31 03:38:41;;;;;;;2.10;1.90;;;14.30;65.50;;;;;;5053946;28;20415;-72
2023/05/31 03:41:07;;;;;;;0.87;0.87;;;14.30;65.40;;;;;;5053789;28;20167;-72
2023/05/31 03:43:33;;;;;;;0.60;0.60;;;14.30;66.30;;;;;;5053634;28;20194;-73
2023/05/31 03:46:01;;;;;;;0.70;0.70;;;14.20;66.70;;;;;;5053454;28;20198;-73
2023/05/31 03:48:28;;;;;;;1.90;1.47;;;14.20;67.20;;;;;;5053417;28;20170;-73
2023/05/31 03:50:54;;;;;;;1.67;1.57;;;14.20;66.30;;;;;;5052808;28;20398;-73
2023/05/31 03:53:19;;;;;;;1.57;1.33;;;14.20;65.90;;;;;;5053380;28;20483;-73
2023/05/31 03:55:45;;;;;;;1.80;1.70;;;14.20;66.20;;;;;;5053322;28;20413;-73
2023/05/31 03:58:10;;;;;;;3.07;1.77;;;14.10;65.60;;;;;;5053627;28;20193;-73
2023/05/31 04:00:36;;;;;;;1.30;1.20;;;14.10;64.80;;;;;;5053614;28;20224;-73
2023/05/31 04:03:02;;;;;;;1.03;1.00;;;14.10;65.90;;;;;;5053361;28;20200;-73
2023/05/31 04:05:28;;;;;;;1.40;1.30;;;14.20;65.00;;;;;;5053196;28;20166;-73
2023/05/31 04:07:53;;;;;;;1.70;1.60;;;14.10;65.80;;;;;;5053682;28;20404;-72
2023/05/31 04:10:19;;;;;;;1.60;1.23;;;14.00;65.60;;;;;;5053393;28;20170;-73
2023/05/31 04:12:46;;;;;;;2.03;1.67;;;14.10;79.70;;;;;;5053281;28;20202;-73
2023/05/31 04:15:11;;;;;;;1.17;0.47;;;14.10;64.50;;;;;;5053572;28;20236;-72
2023/05/31 04:17:37;;;;;;;1.13;1.13;;;14.20;64.70;;;;;;5053184;28;20405;-72
2023/05/31 04:20:07;;;;;;;0.90;0.90;;;14.20;64.10;;;;;;5053399;28;20170;-72
2023/05/31 04:22:35;;;;;;;1.20;0.87;;;14.40;71.60;;;;;;5053145;28;20172;-73
2023/05/31 04:25:01;;;;;;;1.93;1.80;;;14.40;64.80;;;;;;5053180;28;20411;-72
2023/05/31 04:27:28;;;;;;;3.03;1.03;;;14.40;64.10;;;;;;5052929;28;20761;-73
2023/05/31 04:29:57;;;;;;;0.70;0.70;;;14.40;63.00;;;;;;5053078;28;20899;-72
2023/05/31 04:32:23;;;;;;;0.67;0.67;;;14.70;63.40;;;;;;5053143;28;20445;-73
2023/05/31 04:34:48;;;;;;;1.10;1.10;;;15.10;63.20;;;;;;5052969;28;20966;-73
2023/05/31 04:37:15;;;;;;;1.80;1.17;;;15.70;61.90;;;;;;5052967;28;20528;-72
2023/05/31 04:39:41;;;;;;;0.67;0.67;;;16.20;59.50;;;;;;5053143;28;20397;-73
2023/05/31 04:42:09;;;;;;;1.70;1.40;;;16.50;58.70;;;;;;5053163;28;20923;-73
2023/05/31 04:44:36;;;;;;;0.53;0.53;;;16.60;58.30;;;;;;5053080;28;20186;-73
2023/05/31 04:47:01;;;;;;;2.30;1.43;;;16.60;58.30;;;;;;5052732;28;20463;-73
2023/05/31 04:49:27;;;;;;;0.83;0.77;;;16.60;58.90;;;;;;5052789;28;20424;-73
2023/05/31 04:51:53;;;;;;;1.50;1.10;;;16.60;59.30;;;;;;5053264;28;20189;-73
2023/05/31 04:54:18;;;;;;;1.77;1.63;;;16.60;58.00;;;;;;5052824;28;20190;-73
2023/05/31 04:56:44;;;;;;;1.63;1.53;;;16.70;57.70;;;;;;5052721;28;20216;-73
2023/05/31 04:59:09;;;;;;;1.80;1.70;;;16.70;58.00;;;;;;5053010;28;20162;-73
2023/05/31 05:01:35;;;;;;;1.00;1.00;;;16.90;58.10;;;;;;5055302;28;20205;-73
2023/05/31 05:04:01;;;;;;;1.90;1.80;;;17.10;57.30;;;;;;5056585;28;20194;-73
2023/05/31 05:06:27;;;;;;;1.00;0.97;;;17.50;56.30;;;;;;5056573;28;20183;-72
2023/05/31 05:08:53;;;;;;;3.10;2.97;;;18.20;55.00;;;;;;5056629;28;20564;-73
2023/05/31 05:11:19;;;;;;;1.67;1.20;;;18.80;54.50;;;;;;5056508;28;20411;-73
2023/05/31 05:13:44;;;;;;;0.70;0.70;;;19.10;54.30;;;;;;5056442;28;20208;-73
2023/05/31 05:16:10;;;;;;;0.50;0.50;;;18.90;52.50;;;;;;5056245;28;20174;-73
2023/05/31 05:18:36;;;;;;;1.70;1.13;;;18.90;53.90;;;;;;5055369;28;20251;-73
2023/05/31 05:21:03;;;;;;;0.70;0.63;;;19.10;54.00;;;;;;5055162;28;20397;-73
2023/05/31 05:23:33;;;;;;;0.73;0.73;;;19.10;54.00;;;;;;5056297;28;20479;-73
2023/05/31 05:26:00;;;;;;;0.80;0.80;;;19.00;54.90;;;;;;5055112;28;20898;-73
2023/05/31 05:28:28;;;;;;;1.13;0.93;;;18.70;54.30;;;;;;5056163;28;20401;-73
2023/05/31 05:30:54;;;;;;;0.77;0.77;;;18.50;54.30;;;;;;5056413;28;20402;-73
2023/05/31 05:33:21;;;;;;;0.70;0.70;;;18.50;53.70;;;;;;5056026;28;20462;-73
2023/05/31 05:35:47;;;;;;;1.93;1.40;;;18.60;53.30;;;;;;5055851;28;20408;-73
2023/05/31 05:38:12;;;;;;;0.60;0.60;;;18.60;53.70;;;;;;5056551;28;20459;-73
2023/05/31 05:40:38;;;;;;;1.47;1.43;;;18.50;55.30;;;;;;5056542;28;20630;-73
2023/05/31 05:43:05;;;;;;;2.20;1.20;;;18.30;53.60;;;;;;5055994;28;20222;-71
2023/05/31 05:45:30;;;;;;;0.43;0.43;;;18.20;54.80;;;;;;5055360;28;20181;-71
2023/05/31 05:47:56;;;;;;;0.50;0.50;;;18.20;54.50;;;;;;5055644;28;20413;-72
2023/05/31 05:50:22;;;;;;;0.77;0.77;;;17.90;54.20;;;;;;5055872;28;20183;-71
2023/05/31 05:52:48;;;;;;;0.70;0.70;;;17.80;64.40;;;;;;5055651;28;20226;-71
2023/05/31 05:55:13;;;;;;;0.50;0.43;;;17.80;54.60;;;;;;5055692;28;20909;-71
2023/05/31 05:57:39;;;;;;;0.80;0.80;;;17.70;54.30;;;;;;5055586;28;20253;-70
2023/05/31 06:00:10;;;;;;;2.20;1.03;;;17.70;55.10;;;;;;5055587;28;20507;-72
2023/05/31 06:02:36;;;;;;;0.50;0.50;;;17.70;54.10;;;;;;5055501;28;20175;-70
2023/05/31 06:05:01;;;;;;;0.60;0.60;;;17.70;55.50;;;;;;5055804;28;20408;-71
2023/05/31 06:07:27;;;;;;;5.67;1.30;;;18.10;54.10;;;;;;5055472;28;20172;-72
2023/05/31 06:09:53;;;;;;;1.97;1.77;;;18.60;53.70;;;;;;5055666;28;20166;-71
2023/05/31 06:12:19;;;;;;;0.70;0.70;;;19.30;52.00;;;;;;5054496;28;20717;-71
2023/05/31 06:14:44;;;;;;;0.70;0.70;;;19.90;50.60;;;;;;5055294;28;20693;-72
2023/05/31 06:17:10;;;;;;;0.77;0.53;;;21.20;49.20;;;;;;5055146;28;20408;-71
2023/05/31 06:19:36;;;;;;;0.60;0.50;;;22.00;47.70;;;;;;5055400;28;20245;-71
2023/05/31 06:22:01;;;;;;;3.63;1.40;;;22.50;46.80;;;;;;5055175;28;20162;-71
2023/05/31 06:24:27;;;;;;;0.70;0.70;;;23.50;45.60;;;;;;5055018;28;20555;-71
2023/05/31 06:26:53;;;;;;;0.73;0.73;;;23.20;45.10;;;;;;5054919;28;20173;-71
2023/05/31 06:29:18;;;;;;;0.77;0.77;;;23.50;45.60;;;;;;5055231;28;20532;-73
2023/05/31 06:31:44;;;;;;;1.40;0.90;;;24.40;42.90;;;;;;5055103;28;20194;-72
2023/05/31 06:34:09;;;;;;;0.83;0.83;;;25.00;43.30;;;;;;5054937;28;20186;-72
2023/05/31 06:36:35;;;;;;;1.37;0.80;;;25.20;41.70;;;;;;5054764;28;20170;-73
2023/05/31 06:39:01;;;;;;;1.43;1.20;;;24.90;42.90;;;;;;5055046;28;20252;-71
2023/05/31 06:41:29;;;;;;;0.70;0.70;;;25.10;42.40;;;;;;5054727;28;20423;-71
2023/05/31 06:43:55;;;;;;;0.40;0.40;;;25.60;41.80;;;;;;5054655;28;20225;-71
2023/05/31 06:46:20;;;;;;;0.83;0.83;;;23.70;42.50;;;;;;5054755;28;20410;-72
2023/05/31 06:48:46;;;;;;;0.97;0.97;;;22.80;45.60;;;;;;5054578;28;20251;-72
2023/05/31 06:51:12;;;;;;;1.20;1.10;;;23.20;45.30;;;;;;5054755;28;20176;-71
2023/05/31 06:53:37;;;;;;;1.43;0.80;;;23.50;44.00;;;;;;5054493;28;20540;-72
2023/05/31 06:56:03;;;;;;;1.40;1.33;;;23.80;44.60;;;;;;5054303;28;20174;-72
2023/05/31 06:58:32;;;;;;;1.67;0.90;;;24.10;42.90;;;;;;5054420;28;20169;-71
2023/05/31 07:00:58;;;;;;;0.60;0.60;;;24.30;41.80;;;;;;5054426;28;20246;-73
2023/05/31 07:03:24;;;;;;;0.70;0.70;;;24.40;43.70;;;;;;5054281;28;20924;-71
2023/05/31 07:05:50;;;;;;;1.20;0.90;;;24.80;42.40;;;;;;5054260;28;20417;-73
2023/05/31 07:08:16;;;;;;;1.47;1.37;;;24.80;42.30;;;;;;5054295;28;20429;-72
2023/05/31 07:10:42;;;;;;;0.57;0.57;;;24.40;41.80;;;;;;5054421;28;20386;-70
2023/05/31 07:13:07;;;;;;;1.00;1.00;;;24.00;41.60;;;;;;5054502;28;20198;-71
2023/05/31 07:15:36;;;;;;;1.40;1.17;;;23.70;42.20;;;;;;5054129;28;20176;-72
2023/05/31 07:18:01;;;;;;;1.90;1.70;;;22.50;43.90;;;;;;5054145;28;20166;-71
2023/05/31 07:20:27;;;;;;;1.27;0.60;;;22.30;44.20;;;;;;5054230;28;20812;-72
2023/05/31 07:22:53;;;;;;;0.60;0.60;;;22.40;46.20;;;;;;5054153;28;20579;-73
2023/05/31 07:25:19;;;;;;;0.60;0.60;;;22.60;44.20;;;;;;5053931;28;20170;-71
2023/05/31 07:27:44;;;;;;;2.20;0.73;;;22.90;43.60;;;;;;5053768;28;20221;-72
2023/05/31 07:30:10;;;;;;;0.70;0.60;;;23.10;44.90;;;;;;5054198;28;20409;-72
2023/05/31 07:32:36;;;;;;;1.13;1.00;;;23.10;44.00;;;;;;5053396;28;20201;-72
2023/05/31 07:35:03;;;;;;;1.50;1.50;;;23.10;42.90;;;;;;5053784;28;20166;-72
2023/05/31 07:37:28;;;;;;;1.10;0.70;;;23.50;42.50;;;;;;5053353;28;20170;-71
2023/05/31 07:39:54;;;;;;;0.50;0.50;;;24.40;42.60;;;;;;5053913;28;20433;-72
2023/05/31 07:42:19;;;;;;;0.80;0.80;;;25.40;40.70;;;;;;5053766;28;20201;-72
2023/05/31 07:44:46;;;;;;;1.33;1.07;;;26.60;38.80;;;;;;5053608;28;20202;-70
2023/05/31 07:47:12;;;;;;;1.10;0.67;;;27.20;38.00;;;;;;5053453;28;20258;-71
2023/05/31 07:49:38;;;;;;;0.60;0.60;;;27.80;38.10;;;;;;5053478;28;20519;-71
2023/05/31 07:52:04;;;;;;;0.60;0.60;;;28.80;37.90;;;;;;5053690;28;20186;-71
2023/05/31 07:54:31;;;;;;;1.47;1.17;;;29.70;35.50;;;;;;5053412;28;20295;-71
2023/05/31 07:56:56;;;;;;;1.10;1.00;;;30.80;34.70;;;;;;5053285;28;20409;-71
2023/05/31 07:59:22;;;;;;;1.20;1.10;;;31.70;35.50;;;;;;5053571;28;20170;-71
2023/05/31 08:01:48;;;;;;;0.80;0.80;;;31.60;32.40;;;;;;5053771;28;20166;-70
2023/05/31 08:04:13;;;;;;;2.07;1.20;;;31.70;31.50;;;;;;5053453;28;20190;-71
2023/05/31 08:06:41;;;;;;;1.00;0.83;;;31.40;31.60;;;;;;5051502;28;20182;-71
2023/05/31 08:09:07;;;;;;;1.10;1.00;;;30.90;32.10;;;;;;5051603;28;20546;-72
2023/05/31 08:11:35;;;;;;;1.33;1.23;;;30.50;33.20;;;;;;5052048;28;20555;-70
2023/05/31 08:14:01;;;;;;;1.00;1.00;;;30.10;33.20;;;;;;5052897;28;20209;-70
2023/05/31 08:16:27;;;;;;;1.03;0.87;;;29.80;32.70;;;;;;5052372;28;20419;-69
2023/05/31 08:18:53;;;;;;;1.43;1.30;;;29.80;33.00;;;;;;5053380;28;20491;-71
2023/05/31 08:21:18;;;;;;;1.03;0.97;;;29.80;34.30;;;;;;5053183;28;20170;-70
2023/05/31 08:23:44;;;;;;;4.63;1.50;;;30.30;33.90;;;;;;5053172;28;20224;-72
2023/05/31 08:26:10;;;;;;;1.03;1.03;;;30.80;32.60;;;;;;5053134;28;20627;-72
2023/05/31 08:28:35;;;;;;;1.53;0.70;;;31.20;32.70;;;;;;5053221;28;20170;-71
2023/05/31 08:31:01;;;;;;;0.83;0.83;;;31.10;32.30;;;;;;5053273;28;20642;-72
2023/05/31 08:33:31;;;;;;;0.70;0.70;;;30.50;32.10;;;;;;5052693;28;20206;-72
2023/05/31 08:35:59;;;;;;;1.50;1.40;;;30.40;32.20;;;;;;5053553;28;20532;-71
2023/05/31 08:38:29;;;;;;;0.67;0.67;;;30.50;32.80;;;;;;5057280;28;20912;-72
2023/05/31 08:40:59;;;;;;;0.60;0.60;;;30.50;32.70;;;;;;5056281;28;20405;-70
2023/05/31 08:43:26;;;;;;;0.93;0.90;;;29.50;32.10;;;;;;5056725;28;20436;-71
2023/05/31 08:45:52;;;;;;;1.43;1.23;;;28.80;36.20;;;;;;5055964;28;20421;-72
2023/05/31 08:48:35;;;;;;;1.17;1.07;;;29.70;34.00;;;;;;5055085;28;20432;-70
2023/05/31 08:51:02;;;;;;;1.70;1.60;;;30.20;32.60;;;;;;5057247;28;20272;-71
2023/05/31 08:53:28;;;;;;;0.80;0.80;;;30.50;32.50;;;;;;5056739;28;20455;-72
2023/05/31 08:55:54;;;;;;;1.00;0.70;;;28.70;34.10;;;;;;5056691;28;20441;-72
2023/05/31 08:58:20;;;;;;;1.33;0.87;;;28.50;35.50;;;;;;5057000;28;20484;-72
2023/05/31 09:00:46;;;;;;;0.77;0.77;;;28.70;34.20;;;;;;5056957;28;20400;-71
2023/05/31 09:03:12;;;;;;;1.10;1.00;;;29.40;33.90;;;;;;5057019;28;20524;-72
2023/05/31 09:05:38;;;;;;;0.80;0.80;;;30.00;33.30;;;;;;5056841;28;20185;-72
2023/05/31 09:08:04;;;;;;;1.63;1.53;;;29.70;31.60;;;;;;5056957;28;20412;-71
2023/05/31 09:10:30;;;;;;;1.53;0.97;;;29.30;33.00;;;;;;5056805;28;20261;-71
2023/05/31 09:12:56;;;;;;;0.57;0.57;;;29.90;32.80;;;;;;5056525;28;20703;-72
2023/05/31 09:15:24;;;;;;;1.10;0.83;;;30.50;30.50;;;;;;5056377;28;20404;-72
2023/05/31 09:17:50;;;;;;;1.00;0.80;;;30.00;31.10;;;;;;5056565;28;20411;-72
2023/05/31 09:20:17;;;;;;;0.97;0.97;;;29.80;31.70;;;;;;5056632;28;20436;-72
2023/05/31 09:22:48;;;;;;;1.13;1.03;;;30.20;40.30;;;;;;5056348;28;20440;-71
2023/05/31 09:25:14;;;;;;;0.90;0.83;;;29.80;32.90;;;;;;5056542;28;20445;-72
2023/05/31 09:27:40;;;;;;;1.60;0.97;;;29.80;31.50;;;;;;5056232;28;20438;-71
2023/05/31 09:30:10;;;;;;;2.30;0.90;;;29.40;34.50;;;;;;5056435;28;20491;-71
2023/05/31 09:32:36;;;;;;;1.50;1.40;;;29.30;35.60;;;;;;5056001;28;20566;-72
2023/05/31 09:35:16;;;;;;;1.37;1.30;;;29.50;35.10;;;;;;5056134;28;20413;-71
2023/05/31 09:37:47;;;;;;;1.37;0.70;;;29.80;33.00;;;;;;5055861;28;20911;-72
2023/05/31 09:40:14;;;;;;;3.47;0.90;;;29.10;32.60;;;;;;5056283;28;20412;-72
2023/05/31 09:42:50;;;;;;;0.67;0.67;;;27.20;43.60;;;;;;5056030;28;20419;-72
2023/05/31 09:45:16;;;;;;;1.03;0.93;;;27.00;36.10;;;;;;5056190;28;20416;-72
2023/05/31 09:47:42;;;;;;;0.60;0.60;;;27.50;36.00;;;;;;5054442;28;20420;-71
2023/05/31 09:50:15;;;;;;;0.90;0.90;;;27.80;33.90;;;;;;5055822;28;20850;-72
2023/05/31 09:52:44;;;;;;;0.70;0.60;;;26.40;41.80;;;;;;5055842;28;20197;-71
2023/05/31 09:55:11;;;;;;;1.47;0.60;;;26.70;35.60;;;;;;5055645;28;20409;-72
2023/05/31 09:57:41;;;;;;;0.50;0.50;;;26.40;39.30;;;;;;5055365;28;20466;-72
2023/05/31 10:00:18;;;;;;;0.77;0.77;;;27.20;36.70;;;;;;5055987;28;20401;-72
2023/05/31 10:02:53;;;;;;;0.70;0.70;;;27.20;44.60;;;;;;5055572;28;20599;-72
2023/05/31 10:05:20;;;;;;;2.70;1.53;;;27.10;39.70;;;;;;5055512;28;20381;-71
2023/05/31 10:07:50;;;;;;;1.37;1.00;;;28.00;36.00;;;;;;5055643;28;20405;-71
2023/05/31 10:10:22;;;;;;;1.30;0.80;;;28.60;34.60;;;;;;5055428;28;20410;-72
2023/05/31 10:12:58;;;;;;;0.60;0.60;;;28.70;38.30;;;;;;5054100;28;20831;-72
2023/05/31 10:15:25;;;;;;;1.03;1.03;;;28.60;33.00;;;;;;5055252;28;20418;-72
2023/05/31 10:17:58;;;;;;;0.80;0.80;;;28.70;33.60;;;;;;5055625;28;20384;-71
2023/05/31 10:20:32;;;;;;;1.63;0.90;;;27.50;34.70;;;;;;5054459;28;20419;-72
2023/05/31 10:23:00;;;;;;;1.33;1.07;;;26.10;37.70;;;;;;5053495;28;20399;-71
2023/05/31 10:25:35;;;;;;;2.33;1.53;;;25.90;36.90;;;;;;5054611;28;20406;-71
2023/05/31 10:28:08;;;;;;;1.10;0.83;;;25.90;36.60;;;;;;5054710;28;20450;-72
2023/05/31 10:30:36;;;;;;;1.50;1.13;;;26.40;38.20;;;;;;5055218;28;20412;-71
2023/05/31 10:33:07;;;;;;;1.93;1.20;;;27.10;38.60;;;;;;5054857;28;20443;-72
2023/05/31 10:35:32;;;;;;;6.73;1.23;;;27.80;40.00;;;;;;5054974;28;20392;-71
2023/05/31 10:38:00;;;;;;;1.00;0.80;;;28.20;35.60;;;;;;5054997;28;20405;-72
2023/05/31 10:40:53;;;;;;;1.07;1.07;;;28.10;34.70;;;;;;5055030;28;20174;-71
2023/05/31 10:43:39;;;;;;;2.57;1.10;;;28.00;36.40;;;;;;5054943;28;20411;-71
2023/05/31 10:46:13;;;;;;;2.83;0.90;;;27.80;35.50;;;;;;5054537;28;20383;-72
2023/05/31 10:48:55;;;;;;;1.47;1.00;;;27.20;36.00;;;;;;5054751;28;20412;-72
2023/05/31 10:51:41;;;;;;;0.87;0.87;;;26.60;36.60;;;;;;5054725;28;20436;-71
2023/05/31 10:54:07;;;;;;;0.80;0.73;;;26.70;39.00;;;;;;5054496;28;20399;-71
2023/05/31 10:56:32;;;;;;;1.03;0.90;;;26.80;37.90;;;;;;5054380;28;20805;-71
2023/05/31 10:58:58;;;;;;;0.80;0.80;;;26.70;37.90;;;;;;5054296;28;20400;-71
2023/05/31 11:01:28;;;;;;;1.70;1.20;;;25.50;39.50;;;;;;5054611;28;20670;-72
2023/05/31 11:03:57;;;;;;;1.30;1.20;;;25.20;38.50;;;;;;5054397;28;20186;-72
2023/05/31 11:06:30;;;;;;;0.90;0.80;;;25.10;39.70;;;;;;5054220;28;20409;-71
2023/05/31 11:09:11;;;;;;;2.50;1.00;;;25.30;40.40;;;;;;5054428;28;20382;-71
2023/05/31 11:11:37;;;;;;;0.80;0.80;;;25.50;39.00;;;;;;5054389;28;20433;-72
2023/05/31 11:14:06;;;;;;;0.80;0.70;;;25.30;39.00;;;;;;5054310;28;20402;-71
2023/05/31 11:16:34;;;;;;;1.10;1.00;;;25.10;40.90;;;;;;5054266;28;20543;-70
2023/05/31 11:19:03;;;;;;;0.83;0.80;;;24.90;40.10;;;;;;5054124;28;20405;-70
2023/05/31 11:21:49;;;;;;;2.53;0.80;;;25.00;43.40;;;;;;5054109;28;20743;-71
2023/05/31 11:24:30;;;;;;;1.57;1.47;;;25.10;40.50;;;;;;5054125;28;20396;-70
2023/05/31 11:27:00;;;;;;;1.17;0.80;;;25.00;38.60;;;;;;5053802;28;20450;-72
2023/05/31 11:29:48;;;;;;;0.77;0.77;;;24.90;40.70;;;;;;5054168;28;20730;-71
2023/05/31 11:32:43;;;;;;;0.80;0.63;;;24.70;41.30;;;;;;5053875;28;20569;-71
2023/05/31 11:35:14;;;;;;;1.37;1.27;;;24.60;40.40;;;;;;5053716;28;20391;-71
2023/05/31 11:37:40;;;;;;;0.50;0.50;;;24.30;40.70;;;;;;5053763;28;20412;-71
2023/05/31 11:40:08;;;;;;;0.97;0.60;;;24.10;42.30;;;;;;5054156;28;20439;-71
2023/05/31 11:42:37;;;;;;;0.90;0.87;;;24.20;41.60;;;;;;5053939;28;20404;-70
2023/05/31 11:45:05;;;;;;;1.20;1.10;;;23.80;43.00;;;;;;5053729;28;20423;-70
2023/05/31 11:47:34;;;;;;;1.03;1.00;;;23.90;42.70;;;;;;5053584;28;20771;-72
2023/05/31 11:50:01;;;;;;;1.60;1.50;;;24.10;41.90;;;;;;5053495;28;20539;-71
2023/05/31 11:52:28;;;;;;;0.80;0.80;;;24.10;41.10;;;;;;5053536;28;20948;-72
2023/05/31 11:54:56;;;;;;;1.37;1.27;;;24.00;43.40;;;;;;5053517;28;20431;-71
2023/05/31 11:57:22;;;;;;;0.70;0.70;;;24.00;45.90;;;;;;5053377;28;20466;-71
2023/05/31 11:59:47;;;;;;;1.23;0.80;;;24.20;42.70;;;;;;5053638;28;20482;-72
2023/05/31 12:02:13;;;;;;;1.17;1.07;;;24.00;42.80;;;;;;5053548;28;20413;-72
2023/05/31 12:04:42;;;;;;;1.17;0.90;;;24.20;43.50;;;;;;5053396;28;20193;-70
2023/05/31 12:07:17;;;;;;;0.87;0.87;;;24.40;42.40;;;;;;5053324;28;20505;-71
2023/05/31 12:09:43;;;;;;;1.67;1.23;;;24.10;41.80;;;;;;5053315;28;20412;-72
2023/05/31 12:12:11;;;;;;;1.23;1.13;;;23.70;42.10;;;;;;5052661;28;20456;-71
2023/05/31 12:14:36;;;;;;;0.70;0.70;;;23.70;42.10;;;;;;5053172;28;20845;-71
2023/05/31 12:17:06;;;;;;;0.90;0.80;;;23.90;45.00;;;;;;5052957;28;20448;-72
2023/05/31 12:19:32;;;;;;;1.03;0.93;;;24.20;45.00;;;;;;5053265;28;20201;-71
2023/05/31 12:22:00;;;;;;;1.20;1.07;;;24.40;46.00;;;;;;5053185;28;20489;-71
2023/05/31 12:24:26;;;;;;;0.87;0.87;;;24.60;43.80;;;;;;5052814;28;20428;-71
2023/05/31 12:26:54;;;;;;;1.10;1.00;;;24.70;43.80;;;;;;5052986;28;20958;-70
2023/05/31 12:29:27;;;;;;;1.57;1.47;;;24.50;43.50;;;;;;5052844;28;20264;-70
2023/05/31 12:32:02;;;;;;;1.00;0.90;;;24.30;41.70;;;;;;5053254;28;20501;-72
2023/05/31 12:34:30;;;;;;;0.63;0.63;;;24.30;42.70;;;;;;5053022;28;20478;-71
2023/05/31 12:36:56;;;;;;;5.07;1.30;;;24.30;42.30;;;;;;5053020;28;20411;-71
2023/05/31 12:39:26;;;;;;;0.80;0.80;;;24.30;42.80;;;;;;5053183;28;20404;-71
2023/05/31 12:41:52;;;;;;;1.13;1.03;;;24.10;41.80;;;;;;5053126;28;20208;-72
2023/05/31 12:44:22;;;;;;;1.10;1.00;;;24.00;41.50;;;;;;5053000;28;20807;-71
2023/05/31 12:46:49;;;;;;;1.10;1.00;;;24.10;42.40;;;;;;5053082;28;20504;-71
2023/05/31 12:49:27;;;;;;;1.63;0.90;;;23.70;45.10;;;;;;5052897;28;20809;-72
2023/05/31 12:52:10;;;;;;;0.60;0.60;;;23.70;44.90;;;;;;5053010;28;20490;-74